createdAt,value
2023-01-27T00:01:51.725Z,68.28
2023-01-27T00:03:53.622Z,67.96
2023-01-27T00:05:55.528Z,68.04
2023-01-27T00:07:58.793Z,68.14
2023-01-27T00:10:00.755Z,67.71
2023-01-27T00:12:12.357Z,67.92
2023-01-27T00:14:14.212Z,67.14
2023-01-27T00:16:16.082Z,67.57
2023-01-27T00:18:17.912Z,67.13
2023-01-27T00:20:29.312Z,67.13
2023-01-27T00:22:41.387Z,67.14
2023-01-27T00:24:43.636Z,66.72
2023-01-27T00:26:45.577Z,66.76
2023-01-27T00:28:48.598Z,66.71
2023-01-27T00:30:50.881Z,66.00
2023-01-27T00:33:02.445Z,65.85
2023-01-27T00:35:05.462Z,65.61
2023-01-27T00:37:07.993Z,65.22
2023-01-27T00:39:12.231Z,65.37
2023-01-27T00:41:21.431Z,65.31
2023-01-27T00:43:23.279Z,65.55
2023-01-27T00:45:34.670Z,65.11
2023-01-27T00:47:36.513Z,65.01
2023-01-27T00:49:38.438Z,64.86
2023-01-27T00:51:40.333Z,64.80
2023-01-27T00:53:42.447Z,64.84
2023-01-27T00:55:44.458Z,65.12
2023-01-27T00:57:46.847Z,65.01
2023-01-27T00:59:48.670Z,64.86
2023-01-27T01:01:50.603Z,64.35
2023-01-27T01:03:52.494Z,64.42
2023-01-27T01:05:54.368Z,64.08
2023-01-27T01:07:56.326Z,64.39
2023-01-27T01:09:58.197Z,64.34
2023-01-27T01:12:00.024Z,64.20
2023-01-27T01:14:01.857Z,64.38
2023-01-27T01:16:06.853Z,64.49
2023-01-27T01:18:10.815Z,64.21
2023-01-27T01:20:13.412Z,63.91
2023-01-27T01:22:15.417Z,64.06
2023-01-27T01:24:17.264Z,64.07
2023-01-27T01:26:19.128Z,63.75
2023-01-27T01:28:21.467Z,63.84
2023-01-27T01:30:26.494Z,63.80
2023-01-27T01:32:28.363Z,64.02
2023-01-27T01:34:30.222Z,63.53
2023-01-27T01:36:32.121Z,64.10
2023-01-27T01:38:34.417Z,64.16
2023-01-27T01:40:41.839Z,63.86
2023-01-27T01:42:51.361Z,63.88
2023-01-27T01:45:22.518Z,63.64
2023-01-27T01:47:24.591Z,63.62
2023-01-27T01:49:35.238Z,63.87
2023-01-27T01:51:42.032Z,63.87
2023-01-27T01:53:50.713Z,64.22
2023-01-27T01:55:53.037Z,63.73
2023-01-27T01:57:54.889Z,64.54
2023-01-27T02:00:02.117Z,64.02
2023-01-27T02:02:08.407Z,63.90
2023-01-27T02:04:18.491Z,64.36
2023-01-27T02:06:21.536Z,63.96
2023-01-27T02:08:31.011Z,64.34
2023-01-27T02:10:34.801Z,64.53
2023-01-27T02:12:36.677Z,64.42
2023-01-27T02:14:40.276Z,64.75
2023-01-27T02:16:42.307Z,64.38
2023-01-27T02:18:44.486Z,64.55
2023-01-27T02:20:48.676Z,64.49
2023-01-27T02:22:56.632Z,64.58
2023-01-27T02:25:11.020Z,65.28
2023-01-27T02:27:14.412Z,64.82
2023-01-27T02:29:16.869Z,64.87
2023-01-27T02:31:18.769Z,64.87
2023-01-27T02:33:20.722Z,64.46
2023-01-27T02:35:32.729Z,64.99
2023-01-27T02:37:36.007Z,64.99
2023-01-27T02:39:43.099Z,64.61
2023-01-27T02:41:56.219Z,64.52
2023-01-27T02:43:58.132Z,64.54
2023-01-27T02:45:59.973Z,64.94
2023-01-27T02:48:01.875Z,64.64
2023-01-27T02:50:03.952Z,64.56
2023-01-27T02:52:05.976Z,64.54
2023-01-27T02:54:07.983Z,64.52
2023-01-27T02:56:09.853Z,64.78
2023-01-27T02:58:12.097Z,65.00
2023-01-27T03:00:14.131Z,64.52
2023-01-27T03:02:23.144Z,64.57
2023-01-27T03:04:25.181Z,64.66
2023-01-27T03:06:27.068Z,64.30
2023-01-27T03:08:28.862Z,64.61
2023-01-27T03:10:30.766Z,64.72
2023-01-27T03:12:32.667Z,64.62
2023-01-27T03:14:44.822Z,64.46
2023-01-27T03:16:56.715Z,64.77
2023-01-27T03:18:58.552Z,64.71
2023-01-27T03:21:03.013Z,65.06
2023-01-27T03:23:05.015Z,65.18
2023-01-27T03:25:07.637Z,65.04
2023-01-27T03:27:09.590Z,65.24
2023-01-27T03:29:21.647Z,65.28
2023-01-27T03:31:23.566Z,65.31
2023-01-27T03:33:25.406Z,65.21
2023-01-27T03:35:34.248Z,65.35
2023-01-27T03:37:45.301Z,65.23
2023-01-27T03:39:56.574Z,65.30
2023-01-27T03:42:08.747Z,65.34
2023-01-27T03:44:20.597Z,65.45
2023-01-27T03:46:22.555Z,65.46
2023-01-27T03:48:24.661Z,65.18
2023-01-27T03:50:37.496Z,65.20
2023-01-27T03:52:40.266Z,65.76
2023-01-27T03:54:42.056Z,65.22
2023-01-27T03:56:44.228Z,65.29
2023-01-27T03:58:46.261Z,65.37
2023-01-27T04:00:52.323Z,65.34
2023-01-27T04:03:05.027Z,65.53
2023-01-27T04:05:17.716Z,65.74
2023-01-27T04:07:20.196Z,65.82
2023-01-27T04:09:26.657Z,65.65
2023-01-27T04:11:39.296Z,66.10
2023-01-27T04:13:41.116Z,65.98
2023-01-27T04:15:42.971Z,66.18
2023-01-27T04:17:44.706Z,66.70
2023-01-27T04:19:47.510Z,66.72
2023-01-27T04:21:50.049Z,66.84
2023-01-27T04:23:52.996Z,66.34
2023-01-27T04:25:56.605Z,66.69
2023-01-27T04:27:58.571Z,67.27
2023-01-27T04:30:00.625Z,67.18
2023-01-27T04:32:04.572Z,67.71
2023-01-27T04:34:06.881Z,68.10
2023-01-27T04:36:09.221Z,68.71
2023-01-27T04:38:12.908Z,68.98
2023-01-27T04:40:15.473Z,68.73
2023-01-27T04:42:17.263Z,69.15
2023-01-27T04:44:22.205Z,68.79
2023-01-27T04:46:24.088Z,68.86
2023-01-27T04:48:25.860Z,68.77
2023-01-27T04:50:27.661Z,69.28
2023-01-27T04:52:29.560Z,69.42
2023-01-27T04:54:31.591Z,69.41
2023-01-27T04:56:36.964Z,69.15
2023-01-27T04:58:38.744Z,69.01
2023-01-27T05:00:40.806Z,69.27
2023-01-27T05:02:42.644Z,69.21
2023-01-27T05:04:44.543Z,69.69
2023-01-27T05:06:46.455Z,69.60
2023-01-27T05:08:48.865Z,69.55
2023-01-27T05:10:52.582Z,69.72
2023-01-27T05:12:54.385Z,69.66
2023-01-27T05:14:56.381Z,69.78
2023-01-27T05:16:58.397Z,69.69
2023-01-27T05:19:00.324Z,69.73
2023-01-27T05:21:02.952Z,70.11
2023-01-27T05:23:14.263Z,69.75
2023-01-27T05:25:16.502Z,69.60
2023-01-27T05:27:18.617Z,69.67
2023-01-27T05:29:20.375Z,70.09
2023-01-27T05:31:25.021Z,69.81
2023-01-27T05:33:26.906Z,69.65
2023-01-27T05:35:28.687Z,69.72
2023-01-27T05:37:30.822Z,69.57
2023-01-27T05:39:32.578Z,69.57
2023-01-27T05:41:35.029Z,69.27
2023-01-27T05:43:38.811Z,69.06
2023-01-27T05:45:40.681Z,69.09
2023-01-27T05:47:42.607Z,68.61
2023-01-27T05:49:44.342Z,68.40
2023-01-27T05:51:46.161Z,68.08
2023-01-27T05:53:48.177Z,68.12
2023-01-27T05:55:51.132Z,67.80
2023-01-27T05:57:52.937Z,67.70
2023-01-27T05:59:54.714Z,67.71
2023-01-27T06:01:56.635Z,67.31
2023-01-27T06:03:59.042Z,68.05
2023-01-27T06:06:01.032Z,68.17
2023-01-27T06:08:03.068Z,68.77
2023-01-27T06:10:06.192Z,68.39
2023-01-27T06:12:08.242Z,68.58
2023-01-27T06:14:10.131Z,67.94
2023-01-27T06:16:14.143Z,67.95
2023-01-27T06:18:17.628Z,68.04
2023-01-27T06:20:19.407Z,67.80
2023-01-27T06:22:21.335Z,67.66
2023-01-27T06:24:24.258Z,67.64
2023-01-27T06:26:26.394Z,66.94
2023-01-27T06:28:29.673Z,66.68
2023-01-27T06:30:32.300Z,66.57
2023-01-27T06:32:36.710Z,66.23
2023-01-27T06:34:38.685Z,66.59
2023-01-27T06:36:40.463Z,66.56
2023-01-27T06:38:43.120Z,66.12
2023-01-27T06:40:44.971Z,65.80
2023-01-27T06:42:46.773Z,65.79
2023-01-27T06:44:48.630Z,65.85
2023-01-27T06:46:51.259Z,65.70
2023-01-27T06:48:53.181Z,64.90
2023-01-27T06:50:56.181Z,64.85
2023-01-27T06:53:03.106Z,65.01
2023-01-27T06:55:05.786Z,64.43
2023-01-27T06:57:10.050Z,64.07
2023-01-27T06:59:13.875Z,64.05
2023-01-27T07:01:15.828Z,64.17
2023-01-27T07:03:18.232Z,63.98
2023-01-27T07:05:20.314Z,64.20
2023-01-27T07:07:22.386Z,64.11
2023-01-27T07:09:24.220Z,64.19
2023-01-27T07:11:26.066Z,63.94
2023-01-27T07:13:27.951Z,64.19
2023-01-27T07:15:30.965Z,63.88
2023-01-27T07:17:32.952Z,63.97
2023-01-27T07:19:35.290Z,63.94
2023-01-27T07:21:37.862Z,64.24
2023-01-27T07:23:39.767Z,64.06
2023-01-27T07:25:42.495Z,63.64
2023-01-27T07:27:44.347Z,63.73
2023-01-27T07:29:46.216Z,64.03
2023-01-27T07:31:50.796Z,63.84
2023-01-27T07:33:54.129Z,63.46
2023-01-27T07:35:56.101Z,63.82
2023-01-27T07:37:58.461Z,63.33
2023-01-27T07:40:00.305Z,63.63
2023-01-27T07:42:02.199Z,63.95
2023-01-27T07:44:04.538Z,62.89
2023-01-27T07:46:06.596Z,62.88
2023-01-27T07:48:09.413Z,63.25
2023-01-27T07:50:12.884Z,63.16
2023-01-27T07:52:14.916Z,63.13
2023-01-27T07:54:17.557Z,63.00
2023-01-27T07:56:19.452Z,62.80
2023-01-27T07:58:21.346Z,62.92
2023-01-27T08:00:23.891Z,62.69
2023-01-27T08:02:28.577Z,62.94
2023-01-27T08:04:35.217Z,62.86
2023-01-27T08:06:42.028Z,62.87
2023-01-27T08:08:43.956Z,62.29
2023-01-27T08:10:49.386Z,62.36
2023-01-27T08:12:51.315Z,62.80
2023-01-27T08:14:53.257Z,62.77
2023-01-27T08:16:55.192Z,62.47
2023-01-27T08:18:57.191Z,62.48
2023-01-27T08:21:01.220Z,62.47
2023-01-27T08:23:03.054Z,62.47
2023-01-27T08:25:05.503Z,62.61
2023-01-27T08:27:08.357Z,62.94
2023-01-27T08:29:10.523Z,62.47
2023-01-27T08:31:15.161Z,62.43
2023-01-27T08:33:17.106Z,62.38
2023-01-27T08:35:19.107Z,62.11
2023-01-27T08:37:21.015Z,62.46
2023-01-27T08:39:23.023Z,62.36
2023-01-27T08:41:26.993Z,62.37
2023-01-27T08:43:28.892Z,62.26
2023-01-27T08:45:31.228Z,62.19
2023-01-27T08:47:33.297Z,62.37
2023-01-27T08:49:35.197Z,62.01
2023-01-27T08:51:37.126Z,62.30
2023-01-27T08:53:39.170Z,62.01
2023-01-27T08:55:41.191Z,61.90
2023-01-27T08:57:43.475Z,62.14
2023-01-27T08:59:46.327Z,62.26
2023-01-27T09:01:48.362Z,62.09
2023-01-27T09:03:50.621Z,62.01
2023-01-27T09:05:52.645Z,61.72
2023-01-27T09:07:54.916Z,61.92
2023-01-27T09:10:12.701Z,62.16
2023-01-27T09:12:16.105Z,61.47
2023-01-27T09:14:18.931Z,61.52
2023-01-27T09:16:20.921Z,61.25
2023-01-27T09:18:22.974Z,60.61
2023-01-27T09:20:24.976Z,61.11
2023-01-27T09:22:29.896Z,61.32
2023-01-27T09:24:31.782Z,61.19
2023-01-27T09:26:33.819Z,60.83
2023-01-27T09:28:35.746Z,60.37
2023-01-27T09:30:39.975Z,60.88
2023-01-27T09:32:43.200Z,60.32
2023-01-27T09:34:45.205Z,60.49
2023-01-27T09:36:52.082Z,60.13
2023-01-27T09:39:01.790Z,60.27
2023-01-27T09:41:15.062Z,60.22
2023-01-27T09:43:33.336Z,60.02
2023-01-27T09:45:47.526Z,59.70
2023-01-27T09:48:03.916Z,60.17
2023-01-27T09:50:18.978Z,59.95
2023-01-27T09:52:21.315Z,59.75
2023-01-27T09:54:42.983Z,59.58
2023-01-27T09:56:55.896Z,58.68
2023-01-27T09:59:08.243Z,58.64
2023-01-27T10:01:19.809Z,58.85
2023-01-27T10:03:40.284Z,57.99
2023-01-27T10:05:49.240Z,57.95
2023-01-27T10:08:13.602Z,57.78
2023-01-27T10:10:32.611Z,57.82
2023-01-27T10:12:48.221Z,57.20
2023-01-27T10:14:51.701Z,57.40
2023-01-27T10:17:03.998Z,57.29
2023-01-27T10:19:17.297Z,56.71
2023-01-27T10:21:41.050Z,56.83
2023-01-27T10:23:53.922Z,56.59
2023-01-27T10:26:15.623Z,56.63
2023-01-27T10:28:23.087Z,57.03
2023-01-27T10:30:35.975Z,56.95
2023-01-27T10:32:51.747Z,56.04
2023-01-27T10:35:11.564Z,56.01
2023-01-27T10:37:23.916Z,55.61
2023-01-27T10:39:44.305Z,55.93
2023-01-27T10:41:54.271Z,55.51
2023-01-27T10:44:00.601Z,55.13
2023-01-27T10:46:17.576Z,55.26
2023-01-27T10:48:36.603Z,55.39
2023-01-27T10:50:43.448Z,55.91
2023-01-27T10:52:54.897Z,55.28
2023-01-27T10:55:15.164Z,54.91
2023-01-27T10:57:25.457Z,55.19
2023-01-27T10:59:45.228Z,55.51
2023-01-27T11:02:00.176Z,54.51
2023-01-27T11:04:04.809Z,54.45
2023-01-27T11:06:14.844Z,54.21
2023-01-27T11:08:19.936Z,54.30
2023-01-27T11:10:23.137Z,53.79
2023-01-27T11:12:33.878Z,54.23
2023-01-27T11:14:46.940Z,54.41
2023-01-27T11:16:54.999Z,54.01
2023-01-27T11:19:04.358Z,53.94
2023-01-27T11:21:09.717Z,52.74
2023-01-27T11:23:26.735Z,52.39
2023-01-27T11:25:45.186Z,52.48
2023-01-27T11:28:07.143Z,51.65
2023-01-27T11:30:19.935Z,52.08
2023-01-27T11:32:39.145Z,52.19
2023-01-27T11:34:45.629Z,51.86
2023-01-27T11:36:49.887Z,52.45
2023-01-27T11:38:54.627Z,51.92
2023-01-27T11:40:56.577Z,52.18
2023-01-27T11:43:00.316Z,51.77
2023-01-27T11:45:02.957Z,51.75
2023-01-27T11:47:07.563Z,51.67
2023-01-27T11:49:10.577Z,51.41
2023-01-27T11:51:23.176Z,51.81
2023-01-27T11:53:36.878Z,51.26
2023-01-27T11:55:42.662Z,51.25
2023-01-27T11:57:51.498Z,51.02
2023-01-27T12:00:01.229Z,50.76
2023-01-27T12:02:14.292Z,50.93
2023-01-27T12:04:26.161Z,50.40
2023-01-27T12:06:34.012Z,50.88
2023-01-27T12:08:47.220Z,50.69
2023-01-27T12:10:49.299Z,51.23
2023-01-27T12:12:51.496Z,50.76
2023-01-27T12:14:57.984Z,50.47
2023-01-27T12:17:04.154Z,50.93
2023-01-27T12:19:21.567Z,50.95
2023-01-27T12:21:37.076Z,51.14
2023-01-27T12:23:47.962Z,50.47
2023-01-27T12:26:00.416Z,50.48
2023-01-27T12:28:05.216Z,50.56
2023-01-27T12:30:18.481Z,50.41
2023-01-27T12:32:27.758Z,50.47
2023-01-27T12:34:38.029Z,50.02
2023-01-27T12:36:42.521Z,50.00
2023-01-27T12:38:51.877Z,49.74
2023-01-27T12:41:04.825Z,50.12
2023-01-27T12:43:12.116Z,50.13
2023-01-27T12:45:27.139Z,49.52
2023-01-27T12:47:30.585Z,49.55
2023-01-27T12:49:37.012Z,49.60
2023-01-27T12:51:45.195Z,49.41
2023-01-27T12:53:49.779Z,48.82
2023-01-27T12:55:54.641Z,49.22
2023-01-27T12:57:56.709Z,49.48
2023-01-27T12:59:59.181Z,49.81
2023-01-27T13:02:19.853Z,48.94
2023-01-27T13:04:25.497Z,49.62
2023-01-27T13:06:37.777Z,49.25
2023-01-27T13:08:41.862Z,49.34
2023-01-27T13:10:54.197Z,49.01
2023-01-27T13:12:58.985Z,49.64
2023-01-27T13:15:15.441Z,49.78
2023-01-27T13:17:36.544Z,50.25
2023-01-27T13:19:43.541Z,49.64
2023-01-27T13:21:50.062Z,50.18
2023-01-27T13:23:54.186Z,50.33
2023-01-27T13:26:11.720Z,50.09
2023-01-27T13:28:20.959Z,49.39
2023-01-27T13:30:29.294Z,50.40
2023-01-27T13:32:36.351Z,50.40
2023-01-27T13:34:50.871Z,49.37
2023-01-27T13:37:07.606Z,50.01
2023-01-27T13:39:22.022Z,50.01
2023-01-27T13:41:37.472Z,49.81
2023-01-27T13:43:48.459Z,49.71
2023-01-27T13:45:51.438Z,49.52
2023-01-27T13:48:03.502Z,49.58
2023-01-27T13:50:19.664Z,49.78
2023-01-27T13:52:21.641Z,50.23
2023-01-27T13:54:25.562Z,50.57
2023-01-27T13:56:37.819Z,49.90
2023-01-27T13:58:48.077Z,49.70
2023-01-27T14:00:54.497Z,48.95
2023-01-27T14:03:09.596Z,48.90
2023-01-27T14:05:28.351Z,49.28
2023-01-27T14:07:39.819Z,48.71
2023-01-27T14:10:03.778Z,49.02
2023-01-27T14:12:18.287Z,49.41
2023-01-27T14:14:58.112Z,49.84
2023-01-27T14:17:13.365Z,50.38
2023-01-27T14:19:34.457Z,50.65
2023-01-27T14:21:47.544Z,50.24
2023-01-27T14:24:04.899Z,50.99
2023-01-27T14:26:15.344Z,50.74
2023-01-27T14:28:20.935Z,50.68
2023-01-27T14:30:33.400Z,50.63
2023-01-27T14:32:46.512Z,50.34
2023-01-27T14:34:58.362Z,50.32
2023-01-27T14:37:19.600Z,50.50
2023-01-27T14:39:36.117Z,51.02
2023-01-27T14:41:47.938Z,50.56
2023-01-27T14:44:00.068Z,50.99
2023-01-27T14:46:10.157Z,51.29
2023-01-27T14:48:28.518Z,50.31
2023-01-27T14:50:46.510Z,50.28
2023-01-27T14:52:56.149Z,50.34
2023-01-27T14:55:21.003Z,50.22
2023-01-27T14:57:33.629Z,50.02
2023-01-27T14:59:47.016Z,51.22
2023-01-27T15:02:02.698Z,50.43
2023-01-27T15:04:22.268Z,50.69
2023-01-27T15:06:35.298Z,50.45
2023-01-27T15:08:48.445Z,50.43
2023-01-27T15:11:07.843Z,50.53
2023-01-27T15:13:19.823Z,50.79
2023-01-27T15:15:44.230Z,50.45
2023-01-27T15:17:55.920Z,50.16
2023-01-27T15:20:17.490Z,50.73
2023-01-27T15:22:31.368Z,51.35
2023-01-27T15:24:42.691Z,50.53
2023-01-27T15:26:46.936Z,50.40
2023-01-27T15:28:49.264Z,49.80
2023-01-27T15:31:09.850Z,49.61
2023-01-27T15:33:33.652Z,49.57
2023-01-27T15:35:38.623Z,49.59
2023-01-27T15:38:09.715Z,49.48
2023-01-27T15:40:15.689Z,49.56
2023-01-27T15:42:19.782Z,49.93
2023-01-27T15:44:25.258Z,49.48
2023-01-27T15:46:32.126Z,50.00
2023-01-27T15:48:38.677Z,49.75
2023-01-27T15:50:53.912Z,49.89
2023-01-27T15:53:03.322Z,50.53
2023-01-27T15:55:08.342Z,50.66
2023-01-27T15:57:28.000Z,50.50
2023-01-27T15:59:57.132Z,50.38
2023-01-27T16:02:03.497Z,50.67
2023-01-27T16:04:21.350Z,51.14
2023-01-27T16:06:25.786Z,51.21
2023-01-27T16:08:38.217Z,51.38
2023-01-27T16:10:41.027Z,51.03
2023-01-27T16:12:48.445Z,50.57
2023-01-27T16:15:30.387Z,50.51
2023-01-27T16:17:33.597Z,51.36
2023-01-27T16:19:49.025Z,51.31
2023-01-27T16:22:00.599Z,51.18
2023-01-27T16:24:08.458Z,51.99
2023-01-27T16:26:30.527Z,51.16
2023-01-27T16:28:34.733Z,50.75
2023-01-27T16:30:45.362Z,50.89
2023-01-27T16:32:54.809Z,51.35
2023-01-27T16:35:02.690Z,50.92
2023-01-27T16:37:23.977Z,51.07
2023-01-27T16:39:35.235Z,51.00
2023-01-27T16:41:39.607Z,51.30
2023-01-27T16:43:49.923Z,50.81
2023-01-27T16:45:54.877Z,51.24
2023-01-27T16:47:59.503Z,51.38
2023-01-27T16:50:01.654Z,51.17
2023-01-27T16:52:05.481Z,51.84
2023-01-27T16:54:23.498Z,52.34
2023-01-27T16:56:32.677Z,52.45
2023-01-27T16:58:46.179Z,52.03
2023-01-27T17:00:52.447Z,51.93
2023-01-27T17:02:57.535Z,52.47
2023-01-27T17:05:03.324Z,52.64
2023-01-27T17:07:13.535Z,52.29
2023-01-27T17:09:28.629Z,52.57
2023-01-27T17:11:33.301Z,53.38
2023-01-27T17:13:45.444Z,52.70
2023-01-27T17:15:47.425Z,53.68
2023-01-27T17:17:50.974Z,52.69
2023-01-27T17:20:01.306Z,53.11
2023-01-27T17:22:10.469Z,53.04
2023-01-27T17:24:19.420Z,53.22
2023-01-27T17:26:21.620Z,53.67
2023-01-27T17:28:26.986Z,53.95
2023-01-27T17:30:35.791Z,53.53
2023-01-27T17:32:40.449Z,53.72
2023-01-27T17:34:42.603Z,54.57
2023-01-27T17:37:03.918Z,54.59
2023-01-27T17:39:25.744Z,54.73
2023-01-27T17:41:36.463Z,55.16
2023-01-27T17:43:39.882Z,54.58
2023-01-27T17:45:43.343Z,54.75
2023-01-27T17:47:46.658Z,55.08
2023-01-27T17:49:50.181Z,54.91
2023-01-27T17:51:54.646Z,55.68
2023-01-27T17:53:58.695Z,54.96
2023-01-27T17:56:10.364Z,55.42
2023-01-27T17:58:20.782Z,55.08
2023-01-27T18:00:26.355Z,55.09
2023-01-27T18:02:32.632Z,55.36
2023-01-27T18:04:39.947Z,55.39
2023-01-27T18:06:42.964Z,54.84
2023-01-27T18:08:54.939Z,54.74
2023-01-27T18:11:11.524Z,55.00
2023-01-27T18:13:36.461Z,54.65
2023-01-27T18:15:48.625Z,54.57
2023-01-27T18:18:00.843Z,55.06
2023-01-27T18:20:03.491Z,55.24
2023-01-27T18:22:14.046Z,55.64
2023-01-27T18:24:21.060Z,54.67
2023-01-27T18:26:39.585Z,54.80
2023-01-27T18:28:43.368Z,54.75
2023-01-27T18:30:49.835Z,55.01
2023-01-27T18:32:59.986Z,54.99
2023-01-27T18:35:01.958Z,55.18
2023-01-27T18:37:22.180Z,55.28
2023-01-27T18:39:32.878Z,55.18
2023-01-27T18:41:38.317Z,55.70
2023-01-27T18:43:40.461Z,55.36
2023-01-27T18:45:44.346Z,55.42
2023-01-27T18:47:46.431Z,55.96
2023-01-27T18:49:54.544Z,55.95
2023-01-27T18:51:56.453Z,55.81
2023-01-27T18:53:58.459Z,56.23
2023-01-27T18:56:02.343Z,56.26
2023-01-27T18:58:04.443Z,56.28
2023-01-27T19:00:07.619Z,55.97
2023-01-27T19:02:15.912Z,55.92
2023-01-27T19:04:17.963Z,56.12
2023-01-27T19:06:20.527Z,56.49
2023-01-27T19:08:24.732Z,56.32
2023-01-27T19:10:29.684Z,56.54
2023-01-27T19:12:31.708Z,56.10
2023-01-27T19:14:35.074Z,56.29
2023-01-27T19:16:37.395Z,56.52
2023-01-27T19:18:40.603Z,56.63
2023-01-27T19:20:43.287Z,56.49
2023-01-27T19:22:46.633Z,56.47
2023-01-27T19:24:50.689Z,56.55
2023-01-27T19:26:52.823Z,56.73
2023-01-27T19:28:57.404Z,56.66
2023-01-27T19:31:00.224Z,56.73
2023-01-27T19:33:03.711Z,56.83
2023-01-27T19:35:06.623Z,56.43
2023-01-27T19:37:23.243Z,56.99
2023-01-27T19:39:25.288Z,57.09
2023-01-27T19:41:27.312Z,57.32
2023-01-27T19:43:29.448Z,56.16
2023-01-27T19:45:34.324Z,56.48
2023-01-27T19:47:36.285Z,56.68
2023-01-27T19:49:38.319Z,56.82
2023-01-27T19:51:40.269Z,57.25
2023-01-27T19:53:42.283Z,56.87
2023-01-27T19:55:46.721Z,57.07
2023-01-27T19:57:49.774Z,57.38
2023-01-27T19:59:51.840Z,57.55
2023-01-27T20:01:53.835Z,57.25
2023-01-27T20:03:56.098Z,58.49
2023-01-27T20:05:58.209Z,57.64
2023-01-27T20:08:00.727Z,57.92
2023-01-27T20:10:02.795Z,57.92
2023-01-27T20:12:06.327Z,58.03
2023-01-27T20:14:14.006Z,58.54
2023-01-27T20:16:15.989Z,57.78
2023-01-27T20:18:19.094Z,57.88
2023-01-27T20:20:22.685Z,58.37
2023-01-27T20:22:27.209Z,58.27
2023-01-27T20:24:29.091Z,57.75
2023-01-27T20:26:32.590Z,58.14
2023-01-27T20:28:34.648Z,58.53
2023-01-27T20:30:37.226Z,57.94
2023-01-27T20:32:39.213Z,58.12
2023-01-27T20:34:41.163Z,58.08
2023-01-27T20:36:43.075Z,58.20
2023-01-27T20:38:45.158Z,57.99
2023-01-27T20:40:47.297Z,58.05
2023-01-27T20:42:50.319Z,58.66
2023-01-27T20:44:52.255Z,58.45
2023-01-27T20:46:54.172Z,58.42
2023-01-27T20:48:58.242Z,58.32
2023-01-27T20:51:01.847Z,58.18
2023-01-27T20:53:04.802Z,58.02
2023-01-27T20:55:07.873Z,58.41
2023-01-27T20:57:09.852Z,58.60
2023-01-27T20:59:11.834Z,58.84
2023-01-27T21:01:16.236Z,58.86
2023-01-27T21:03:18.200Z,59.03
2023-01-27T21:05:20.047Z,58.98
2023-01-27T21:07:23.237Z,58.74
2023-01-27T21:09:25.389Z,58.83
2023-01-27T21:11:27.357Z,58.76
2023-01-27T21:13:29.870Z,58.81
2023-01-27T21:15:31.748Z,58.55
2023-01-27T21:17:34.009Z,58.66
2023-01-27T21:19:36.047Z,58.66
2023-01-27T21:21:38.273Z,58.71
2023-01-27T21:23:40.371Z,58.95
2023-01-27T21:25:42.362Z,58.86
2023-01-27T21:27:45.222Z,59.13
2023-01-27T21:29:47.233Z,59.17
2023-01-27T21:31:49.454Z,59.20
2023-01-27T21:33:51.431Z,59.51
2023-01-27T21:35:55.504Z,59.39
2023-01-27T21:37:57.392Z,59.24
2023-01-27T21:39:59.278Z,59.52
2023-01-27T21:42:01.400Z,59.39
2023-01-27T21:44:13.317Z,59.14
2023-01-27T21:46:15.415Z,59.36
2023-01-27T21:48:17.369Z,59.06
2023-01-27T21:50:19.592Z,59.56
2023-01-27T21:52:24.063Z,59.63
2023-01-27T21:54:26.005Z,59.17
2023-01-27T21:56:27.938Z,59.17
2023-01-27T21:58:29.806Z,59.64
2023-01-27T22:00:31.783Z,59.31
2023-01-27T22:02:33.835Z,59.42
2023-01-27T22:04:35.744Z,59.46
2023-01-27T22:06:38.007Z,59.28
2023-01-27T22:08:39.881Z,59.52
2023-01-27T22:10:42.004Z,59.32
2023-01-27T22:12:44.632Z,59.64
2023-01-27T22:14:46.550Z,59.72
2023-01-27T22:16:50.473Z,59.94
2023-01-27T22:18:52.318Z,59.72
2023-01-27T22:20:54.467Z,59.88
2023-01-27T22:22:56.443Z,60.21
2023-01-27T22:24:58.534Z,59.97
2023-01-27T22:27:00.511Z,59.95
2023-01-27T22:29:02.382Z,60.28
2023-01-27T22:31:04.443Z,60.04
2023-01-27T22:33:06.343Z,60.27
2023-01-27T22:35:08.648Z,60.39
2023-01-27T22:37:10.561Z,59.78
2023-01-27T22:39:12.467Z,60.12
2023-01-27T22:41:14.425Z,60.08
2023-01-27T22:43:16.690Z,60.00
2023-01-27T22:45:18.741Z,60.09
2023-01-27T22:47:20.592Z,59.63
2023-01-27T22:49:22.529Z,59.61
2023-01-27T22:51:24.391Z,59.26
2023-01-27T22:53:26.438Z,59.35
2023-01-27T22:55:28.392Z,59.07
2023-01-27T22:57:31.534Z,58.85
2023-01-27T22:59:33.338Z,58.78
2023-01-27T23:01:35.218Z,58.29
2023-01-27T23:03:37.081Z,58.57
2023-01-27T23:05:39.058Z,58.61
2023-01-27T23:07:40.944Z,58.61
2023-01-27T23:09:42.856Z,58.70
2023-01-27T23:11:44.993Z,58.70
2023-01-27T23:13:46.952Z,58.73
2023-01-27T23:15:48.759Z,58.53
2023-01-27T23:17:50.669Z,58.49
2023-01-27T23:19:52.512Z,58.55
2023-01-27T23:21:54.400Z,58.78
2023-01-27T23:23:56.245Z,58.96
2023-01-27T23:25:58.550Z,58.91
2023-01-27T23:28:00.437Z,58.94
2023-01-27T23:30:02.291Z,59.19
2023-01-27T23:32:04.254Z,59.44
2023-01-27T23:34:06.466Z,58.96
2023-01-27T23:36:09.929Z,58.84
2023-01-27T23:38:26.357Z,58.79
2023-01-27T23:40:28.444Z,58.70
2023-01-27T23:42:30.305Z,58.83
2023-01-27T23:44:32.118Z,58.39
2023-01-27T23:46:34.118Z,58.32
2023-01-27T23:48:35.933Z,58.17
2023-01-27T23:50:37.787Z,58.58
2023-01-27T23:52:39.718Z,57.80
2023-01-27T23:54:41.563Z,57.63
2023-01-27T23:56:43.400Z,57.28
2023-01-27T23:58:45.880Z,56.96
